Station: Busselton Airport  

  Atmospheric Gas Attenuation - ITU Rec 676-11   ----------------- dB/100km -----------------
Date Time Temp RH % AH g/m3 Dew Point Wind Direction Speed kph Gust kph Barometer mB Rainfall Since 9am 24GHz 47GHz 76GHz 122GHz 134GHz 241GHz
03/09 06:10 6.7 100 7.6 6.7 7 9 1018.3 1.2 17.8 26.5 39.4 103.4 94.0 322.2
03/09 06:00 6.4 100 7.46 6.4 7 9 1018.4 1.2 17.5 26.4 39.0 102.2 92.4 316.6
03/09 05:50 6.1 100 7.31 6.1 6 9 1018.5 1.2 17.2 26.2 38.5 100.9 90.7 310.4
03/09 05:40 6.1 100 7.31 6.1 0 0 1018.5 1.2 17.2 26.2 38.5 100.9 90.7 310.4
03/09 05:30 6 100 7.26 6 0 0 1018.5 1.2 17.1 26.2 38.4 100.4 90.1 308.4
03/09 05:20 6.4 100 7.46 6.4 0 0 1018.6 1.2 17.5 26.4 39.0 102.2 92.5 316.6
03/09 05:10 6 100 7.26 6 0 0 1018.5 1.2 17.1 26.2 38.4 100.4 90.1 308.4
03/09 05:00 5.8 100 7.17 5.8 6 7 1018.6 1.2 16.9 26.1 38.1 99.7 89.1 304.8
03/09 04:50 5.9 100 7.22 5.9 6 7 1018.6 1.2 17.0 26.1 38.2 100.1 89.7 306.8
03/09 04:40 5.8 100 7.17 5.8 9 9 1018.6 1.2 16.9 26.1 38.1 99.7 89.1 304.8
03/09 04:30 6 100 7.26 6 9 9 1018.7 1.2 17.1 26.2 38.4 100.5 90.1 308.4
03/09 04:20 6.9 100 7.7 6.9 0 7 1018.8 1.2 18.0 26.7 39.8 104.3 95.2 326.4
03/09 04:10 6.5 100 7.5 6.5 6 7 1018.9 1.2 17.6 26.4 39.1 102.6 92.9 318.2
03/09 04:00 6.4 100 7.46 6.4 6 7 1018.9 1.2 17.5 26.4 39.0 102.2 92.5 316.7
03/09 03:50 6.4 100 7.46 6.4 6 7 1019 1.2 17.5 26.4 39.0 102.2 92.5 316.7
03/09 03:40 6.8 100 7.65 6.8 6 6 1019 1.2 17.9 26.6 39.6 103.9 94.7 324.4
03/09 03:30 7.5 100 8.01 7.5 4 6 1019.1 1.2 18.6 27.0 40.8 107.1 98.9 339.3
03/09 03:20 7.6 100 8.06 7.6 7 7 1019.2 1.2 18.7 27.1 41.0 107.5 99.5 341.3
03/09 03:10 7.7 100 8.11 7.7 7 7 1019.4 1.2 18.8 27.1 41.2 108.0 100.1 343.4
03/09 03:00 7.4 100 7.96 7.4 6 7 1019.5 1.2 18.5 27.0 40.7 106.7 98.3 337.3
03/09 02:50 7.3 100 7.9 7.3 6 7 1019.7 1.2 18.4 26.9 40.5 106.1 97.6 334.8
03/09 02:40 7 100 7.75 7 6 7 1019.8 1.2 18.1 26.7 40.0 104.8 95.9 328.7
03/09 02:30 6.3 100 7.41 6.3 7 11 1019.8 1.2 17.4 26.4 38.9 101.9 92.0 314.9
03/09 02:20 5.8 100 7.17 5.8 7 11 1019.9 1.2 16.9 26.1 38.1 99.8 89.2 305.1
03/09 02:10 5.8 100 7.17 5.8 9 11 1019.8 1.2 16.9 26.1 38.1 99.8 89.2 305.1
03/09 02:00 6.4 100 7.46 6.4 6 9 1020 1.2 17.5 26.4 39.1 102.3 92.6 317.0
03/09 01:50 6.4 100 7.46 6.4 4 6 1020 1.2 17.5 26.4 39.1 102.3 92.6 317.0
03/09 01:40 6.4 100 7.46 6.4 7 9 1020.1 1.2 17.5 26.4 39.1 102.4 92.6 317.0
03/09 01:30 6.3 100 7.41 6.3 9 9 1020.2 1.2 17.4 26.4 38.9 101.9 92.0 315.0
03/09 01:20 6.2 100 7.36 6.2 9 9 1020.3 1.2 17.3 26.3 38.8 101.5 91.4 312.9
03/09 01:10 6 100 7.26 6 7 9 1020.3 1.2 17.1 26.2 38.4 100.6 90.3 308.8
03/09 01:00 7 100 7.75 7 6 7 1020.4 1.2 18.1 26.8 40.0 104.9 96.0 328.9
03/09 00:50 7 100 7.75 7 9 11 1020.5 1.2 18.1 26.8 40.0 104.9 96.0 328.9
03/09 00:40 6.9 100 7.7 6.9 6 7 1020.6 1.2 18.0 26.7 39.9 104.5 95.4 326.9
03/09 00:30 6.7 100 7.6 6.7 6 7 1020.6 1.2 17.8 26.6 39.6 103.6 94.2 322.8
03/09 00:20 6.8 100 7.65 6.8 7 9 1020.6 1.2 17.9 26.7 39.7 104.0 94.8 324.9
03/09 00:10 7.2 100 7.85 7.2 9 13 1020.7 1.2 18.3 26.9 40.4 105.8 97.1 333.1
03/09 00:00 7.8 100 8.16 7.8 2 9 1020.8 1.2 18.9 27.3 41.4 108.6 100.8 345.8
02/09 23:50 7.6 100 8.06 7.6 2 7 1021 1.2 18.7 27.1 41.1 107.7 99.6 341.8
02/09 23:40 6.9 99 7.63 6.8 4 6 1021 1.2 17.8 26.6 39.6 103.7 94.4 323.6
02/09 23:30 7.9 100 8.22 7.9 6 7 1021 1.2 19.1 27.3 41.6 109.1 101.5 348.4
02/09 23:20 7.8 99 8.08 7.7 6 7 1021 1.2 18.8 27.1 41.1 107.7 99.6 341.9
02/09 23:10 7.7 99 8.03 7.6 6 7 1021.1 1.2 18.7 27.1 40.9 107.2 99.1 339.9
02/09 23:00 8 99 8.19 7.9 6 7 1021.2 1.2 19.0 27.3 41.4 108.7 101.0 346.5
02/09 22:50 8.4 99 8.4 8.3 6 7 1021.3 1.2 19.4 27.5 42.1 110.5 103.4 355.2
02/09 22:40 8.9 99 8.68 8.8 9 9 1021.4 1.2 20.0 27.8 43.1 113.0 106.7 366.8
02/09 22:30 9.3 99 8.9 9.2 7 9 1021.5 1.2 20.4 28.1 43.8 115.0 109.3 375.9
02/09 22:20 9.7 99 9.13 9.6 6 7 1021.6 1.2 20.9 28.4 44.6 117.1 112.0 385.5
02/09 22:10 10.1 99 9.36 10 6 7 1021.6 1.2 21.4 28.6 45.4 119.2 114.7 395.0
02/09 22:00 10.5 99 9.6 10.3 4 7 1021.7 1.2 21.9 28.9 46.2 121.4 117.6 405.1
02/09 21:50 10.4 99 9.54 10.2 0 0 1021.7 1.2 21.8 28.9 46.0 120.8 116.9 402.6
02/09 21:40 10.4 99 9.54 10.2 0 0 1021.7 1.2 21.8 28.9 46.0 120.8 116.9 402.6
02/09 21:30 10.2 99 9.42 10.1 6 7 1021.7 1.2 21.5 28.7 45.6 119.7 115.5 397.6
02/09 21:20 10 99 9.3 9.9 6 7 1021.7 1.2 21.3 28.6 45.2 118.6 114.0 392.5
02/09 21:10 9.7 99 9.13 9.6 7 7 1021.6 1.2 20.9 28.4 44.6 117.1 112.0 385.5
02/09 21:00 9.7 99 9.13 9.6 7 9 1021.6 1.2 20.9 28.4 44.6 117.1 112.0 385.5
02/09 20:50 9.7 98 9.04 9.4 9 11 1021.7 1.2 20.7 28.2 44.2 116.1 110.7 381.0
02/09 20:40 9.6 96 8.8 9 9 11 1021.7 1.2 20.2 27.8 43.2 113.4 107.5 369.6
02/09 20:30 10.2 96 9.14 9.6 11 13 1021.7 1.2 20.9 28.2 44.4 116.5 111.4 383.5
02/09 20:20 10.4 91 8.77 9 9 13 1021.6 1.2 20.1 27.5 42.7 111.9 105.9 364.3
02/09 20:10 11.4 91 9.34 10 9 11 1021.5 1.2 21.3 28.2 44.5 116.9 112.5 387.4
02/09 20:00 12.2 89 9.61 10.4 11 11 1021.4 1.2 21.8 28.4 45.2 118.8 115.1 396.6
02/09 19:50 11.6 91 9.46 10.2 7 9 1021.3 1.2 21.5 28.3 44.9 118.0 113.9 392.3
02/09 19:40 11.8 89 9.37 10 7 9 1021.2 1.2 21.3 28.1 44.4 116.7 112.3 386.8
02/09 19:30 11.8 89 9.37 10 7 9 1021.2 1.2 21.3 28.1 44.4 116.7 112.3 386.8
02/09 19:20 11.7 85 8.89 9.3 7 9 1021.1 1.2 20.3 27.3 42.4 111.4 105.8 363.9
02/09 19:10 13.3 80 9.24 9.9 9 13 1021 1.2 21.0 27.4 43.0 113.0 108.3 373.1
02/09 19:00 13.6 80 9.42 10.2 9 11 1020.9 1.2 21.3 27.6 43.6 114.5 110.4 380.2
02/09 18:50 13.5 80 9.36 10.1 9 13 1020.9 1.2 21.2 27.5 43.4 114.0 109.7 377.9
02/09 18:40 13.9 78 9.35 10.1 9 13 1020.8 1.2 21.2 27.4 43.1 113.3 109.0 375.4
02/09 18:30 14.2 77 9.4 10.2 11 13 1020.7 1.2 21.3 27.4 43.2 113.4 109.2 376.3
02/09 18:20 14.3 76 9.34 10.1 11 13 1020.6 1.2 21.1 27.2 42.9 112.6 108.3 373.0
02/09 18:10 14.8 74 9.37 10.2 11 13 1020.5 1.2 21.2 27.1 42.7 112.2 108.0 372.0
02/09 18:00 15.2 72 9.35 10.2 11 13 1020.4 1.2 21.1 27.0 42.4 111.4 107.1 369.1
02/09 17:50 15.4 70 9.2 10 11 17 1020.3 1.2 20.8 26.7 41.7 109.5 104.8 361.2
02/09 17:40 15.8 68 9.15 9.9 13 17 1020.2 1.2 20.7 26.5 41.3 108.4 103.6 357.0
02/09 17:30 16.2 66 9.1 9.8 13 17 1020.1 1.2 20.5 26.3 40.9 107.3 102.4 352.9
02/09 17:20 16.7 66 9.38 10.3 13 19 1020 1.2 21.1 26.6 41.7 109.6 105.4 363.4
02/09 17:10 16.8 63 9.01 9.7 17 20 1020 1.2 20.3 25.9 40.2 105.5 100.5 346.1
02/09 17:00 17.1 62 9.02 9.8 15 19 1019.9 1.2 20.3 25.9 40.1 105.2 100.2 345.2
02/09 16:50 17.3 60 8.84 9.5 17 24 1019.9 1.2 19.9 25.5 39.3 103.1 97.7 336.3
02/09 16:40 17.5 61 9.09 9.9 17 22 1019.9 1.2 20.4 25.9 40.2 105.4 100.6 346.6
02/09 16:30 17.5 63 9.39 10.4 17 22 1019.8 1.2 21.1 26.3 41.3 108.5 104.5 360.1
02/09 16:20 17.9 60 9.16 10 17 22 1019.7 1.2 20.6 25.8 40.2 105.6 101.0 347.9
02/09 16:10 18.2 60 9.33 10.3 19 26 1019.7 1.2 20.9 26.0 40.7 107.0 102.8 354.2
02/09 16:00 18.6 61 9.71 10.9 17 24 1019.7 1.2 21.7 26.5 42.0 110.4 107.1 369.5
02/09 15:50 18.2 64 9.95 11.3 17 20 1019.7 1.2 22.2 27.0 43.2 113.5 110.8 382.3
02/09 15:40 18.3 58 9.07 9.9 20 28 1019.7 1.2 20.4 25.6 39.7 104.1 99.3 342.2
02/09 15:30 18.8 63 10.15 11.6 15 24 1019.7 1.2 22.6 27.1 43.7 114.7 112.5 388.6
02/09 15:20 18.7 63 10.09 11.5 17 24 1019.7 1.2 22.5 27.1 43.5 114.2 111.9 386.3
02/09 15:10 18.6 62 9.87 11.2 17 22 1019.8 1.2 22.0 26.8 42.7 112.1 109.2 376.8
02/09 15:00 18.3 64 10.01 11.4 17 26 1019.8 1.2 22.4 27.1 43.4 114.0 111.4 384.6
02/09 14:50 17.7 64 9.66 10.8 22 32 1019.8 1.2 21.6 26.7 42.3 111.1 107.7 371.5
02/09 14:40 17.8 65 9.86 11.1 20 26 1019.7 1.2 22.1 27.0 43.0 113.1 110.2 380.2
02/09 14:30 17.6 64 9.6 10.7 17 26 1019.8 1.2 21.5 26.6 42.1 110.6 107.1 369.2
02/09 14:20 17.3 71 10.46 12 17 24 1019.8 1.2 23.4 28.1 45.8 120.3 118.9 410.6
02/09 14:06 17.8 65 9.86 11.1 22 28 1019.8 1.2 22.1 27.0 43.1 113.1 110.2 380.2
02/09 14:00 18.6 64 10.19 11.7 19 30 1019.8 1.2 22.7 27.3 43.9 115.5 113.4 391.4
02/09 13:50 18.1 66 10.2 11.7 20 28 1019.8 1.2 22.8 27.4 44.3 116.3 114.2 394.4
02/09 13:40 17.6 65 9.75 10.9 20 30 1019.9 1.2 21.8 26.9 42.7 112.2 109.0 376.1

Last Refresh: 03-Sep-2026 07:51:24

Bureau of Meteorology